createdAt,value
2024-02-27T00:00:29.950Z,40.15
2024-02-27T00:01:29.991Z,38.61
2024-02-27T00:02:30.345Z,38.80
2024-02-27T00:03:29.967Z,38.36
2024-02-27T00:04:30.028Z,38.07
2024-02-27T00:05:30.028Z,38.75
2024-02-27T00:06:30.036Z,39.30
2024-02-27T00:07:29.981Z,41.36
2024-02-27T00:08:29.946Z,41.97
2024-02-27T00:09:29.956Z,42.62
2024-02-27T00:10:29.969Z,43.85
2024-02-27T00:11:29.965Z,44.68
2024-02-27T00:12:30.338Z,45.18
2024-02-27T00:13:29.950Z,44.97
2024-02-27T00:14:29.970Z,44.39
2024-02-27T00:15:29.991Z,43.15
2024-02-27T00:16:29.958Z,43.02
2024-02-27T00:17:30.007Z,43.65
2024-02-27T00:18:30.177Z,43.91
2024-02-27T00:19:30.140Z,43.77
2024-02-27T00:20:30.048Z,44.24
2024-02-27T00:21:30.041Z,44.45
2024-02-27T00:22:30.025Z,42.95
2024-02-27T00:23:29.985Z,42.81
2024-02-27T00:24:30.101Z,42.28
2024-02-27T00:25:29.979Z,43.89
2024-02-27T00:26:29.995Z,45.03
2024-02-27T00:27:30.088Z,46.80
2024-02-27T00:28:29.984Z,44.18
2024-02-27T00:29:30.041Z,44.40
2024-02-27T00:30:30.060Z,44.38
2024-02-27T00:31:30.061Z,45.24
2024-02-27T00:32:30.338Z,45.35
2024-02-27T00:33:30.034Z,45.99
2024-02-27T00:34:30.072Z,47.38
2024-02-27T00:35:30.036Z,49.08
2024-02-27T00:36:30.230Z,49.27
2024-02-27T00:37:30.328Z,48.92
2024-02-27T00:38:30.028Z,48.65
2024-02-27T00:39:30.129Z,49.31
2024-02-27T00:40:30.029Z,48.27
2024-02-27T00:41:30.000Z,48.78
2024-02-27T00:42:30.438Z,48.40
2024-02-27T00:43:30.000Z,48.63
2024-02-27T00:44:30.041Z,48.48
2024-02-27T00:45:30.019Z,50.94
2024-02-27T00:46:30.057Z,56.66
2024-02-27T00:47:30.356Z,58.64
2024-02-27T00:48:30.149Z,61.28
2024-02-27T00:49:30.099Z,61.68
2024-02-27T00:50:30.048Z,63.86
2024-02-27T00:51:30.058Z,64.10
2024-02-27T00:52:30.149Z,64.28
2024-02-27T00:53:30.013Z,63.05
2024-02-27T00:54:30.094Z,63.63
2024-02-27T00:55:30.101Z,63.09
2024-02-27T00:56:30.102Z,63.53
2024-02-27T00:57:30.182Z,63.28
2024-02-27T00:58:30.182Z,63.28
2024-02-27T00:59:30.209Z,62.53
2024-02-27T01:00:30.224Z,59.62
2024-02-27T01:01:30.332Z,56.86
2024-02-27T01:02:30.353Z,55.10
2024-02-27T01:03:30.458Z,53.72
2024-02-27T01:04:30.478Z,50.71
2024-02-27T01:05:30.600Z,48.08
2024-02-27T01:06:30.592Z,46.95
2024-02-27T01:07:30.851Z,45.47
2024-02-27T01:08:30.725Z,43.91
2024-02-27T01:09:30.718Z,41.95
2024-02-27T01:10:30.750Z,40.81
2024-02-27T01:11:30.791Z,40.96
2024-02-27T01:12:30.894Z,38.48
2024-02-27T01:13:30.865Z,38.19
2024-02-27T01:14:30.941Z,39.68
2024-02-27T01:15:31.035Z,37.94
2024-02-27T01:16:31.014Z,36.62
2024-02-27T01:17:31.090Z,35.29
2024-02-27T01:18:31.212Z,35.01
2024-02-27T01:19:31.224Z,33.44
2024-02-27T01:20:31.154Z,32.80
2024-02-27T01:21:31.257Z,32.94
2024-02-27T01:22:31.354Z,34.26
2024-02-27T01:23:31.308Z,35.35
2024-02-27T01:24:31.453Z,36.01
2024-02-27T01:25:31.413Z,37.77
2024-02-27T01:26:31.487Z,40.27
2024-02-27T01:27:31.613Z,40.25
2024-02-27T01:28:31.529Z,41.00
2024-02-27T01:29:31.572Z,38.66
2024-02-27T01:30:31.687Z,40.20
2024-02-27T01:31:31.704Z,42.51
2024-02-27T01:32:31.793Z,43.13
2024-02-27T01:33:31.893Z,45.38
2024-02-27T01:34:31.978Z,44.40
2024-02-27T01:35:31.893Z,46.10
2024-02-27T01:36:31.933Z,45.51
2024-02-27T01:37:31.957Z,45.43
2024-02-27T01:38:32.003Z,43.08
2024-02-27T01:39:32.127Z,37.79
2024-02-27T01:40:32.157Z,34.98
2024-02-27T01:41:32.112Z,32.66
2024-02-27T01:42:32.376Z,30.44
2024-02-27T01:43:32.222Z,28.26
2024-02-27T01:44:32.245Z,26.79
2024-02-27T01:45:32.394Z,25.57
2024-02-27T01:46:32.287Z,25.34
2024-02-27T01:47:32.378Z,25.01
2024-02-27T01:48:33.402Z,25.57
2024-02-27T01:49:32.503Z,26.60
2024-02-27T01:50:32.405Z,27.71
2024-02-27T01:51:32.482Z,28.35
2024-02-27T01:52:32.399Z,29.34
2024-02-27T01:53:32.417Z,29.65
2024-02-27T01:54:32.570Z,31.10
2024-02-27T01:55:32.499Z,30.66
2024-02-27T01:56:32.570Z,29.30
2024-02-27T01:57:32.659Z,28.03
2024-02-27T01:58:32.553Z,29.59
2024-02-27T01:59:32.588Z,29.95
2024-02-27T02:00:32.628Z,30.27
2024-02-27T02:01:32.716Z,30.19
2024-02-27T02:02:32.679Z,30.83
2024-02-27T02:03:32.708Z,31.76
2024-02-27T02:04:32.909Z,32.46
2024-02-27T02:05:32.707Z,33.39
2024-02-27T02:06:32.837Z,34.58
2024-02-27T02:07:32.785Z,35.39
2024-02-27T02:08:32.784Z,36.49
2024-02-27T02:09:32.906Z,36.57
2024-02-27T02:10:32.839Z,37.55
2024-02-27T02:11:32.918Z,36.94
2024-02-27T02:12:33.030Z,36.85
2024-02-27T02:13:32.980Z,37.36
2024-02-27T02:14:32.993Z,37.12
2024-02-27T02:15:33.113Z,36.79
2024-02-27T02:16:33.118Z,36.14
2024-02-27T02:17:33.340Z,36.32
2024-02-27T02:18:33.402Z,36.06
2024-02-27T02:19:33.347Z,38.06
2024-02-27T02:20:33.285Z,38.44
2024-02-27T02:21:33.346Z,39.09
2024-02-27T02:22:33.861Z,39.60
2024-02-27T02:23:33.407Z,39.25
2024-02-27T02:24:33.461Z,39.62
2024-02-27T02:25:33.463Z,38.89
2024-02-27T02:26:33.500Z,37.57
2024-02-27T02:27:33.910Z,37.28
2024-02-27T02:28:33.604Z,36.58
2024-02-27T02:29:33.646Z,36.81
2024-02-27T02:30:33.790Z,37.38
2024-02-27T02:31:33.731Z,37.62
2024-02-27T02:32:33.819Z,37.27
2024-02-27T02:33:33.916Z,36.27
2024-02-27T02:34:33.928Z,35.47
2024-02-27T02:35:33.860Z,33.96
2024-02-27T02:36:34.022Z,33.90
2024-02-27T02:37:33.960Z,34.65
2024-02-27T02:38:33.990Z,34.05
2024-02-27T02:39:34.094Z,34.76
2024-02-27T02:40:34.032Z,34.87
2024-02-27T02:41:34.081Z,35.73
2024-02-27T02:42:34.398Z,34.71
2024-02-27T02:43:34.153Z,33.05
2024-02-27T02:44:34.281Z,32.09
2024-02-27T02:45:34.244Z,29.07
2024-02-27T02:46:34.266Z,26.98
2024-02-27T02:47:34.316Z,25.53
2024-02-27T02:48:34.479Z,24.97
2024-02-27T02:49:35.654Z,25.71
2024-02-27T02:50:34.403Z,26.98
2024-02-27T02:51:34.467Z,27.67
2024-02-27T02:52:34.425Z,29.19
2024-02-27T02:53:34.373Z,29.15
2024-02-27T02:54:34.436Z,29.55
2024-02-27T02:55:34.387Z,29.27
2024-02-27T02:56:34.404Z,29.63
2024-02-27T02:57:34.440Z,30.09
2024-02-27T02:58:34.417Z,30.66
2024-02-27T02:59:34.365Z,30.96
2024-02-27T03:00:34.463Z,32.97
2024-02-27T03:01:34.448Z,33.11
2024-02-27T03:02:34.384Z,33.74
2024-02-27T03:03:34.548Z,32.38
2024-02-27T03:04:34.444Z,31.35
2024-02-27T03:05:34.422Z,30.53
2024-02-27T03:06:34.540Z,30.14
2024-02-27T03:07:34.413Z,29.95
2024-02-27T03:08:34.434Z,30.19
2024-02-27T03:09:34.419Z,29.43
2024-02-27T03:10:34.407Z,28.87
2024-02-27T03:11:34.455Z,29.45
2024-02-27T03:12:34.929Z,29.13
2024-02-27T03:13:34.406Z,29.07
2024-02-27T03:14:34.430Z,28.35
2024-02-27T03:15:34.494Z,27.34
2024-02-27T03:16:34.525Z,27.86
2024-02-27T03:17:34.510Z,26.24
2024-02-27T03:18:34.517Z,27.20
2024-02-27T03:19:34.530Z,28.16
2024-02-27T03:20:34.415Z,28.73
2024-02-27T03:21:34.498Z,30.47
2024-02-27T03:22:34.405Z,32.20
2024-02-27T03:23:34.461Z,33.82
2024-02-27T03:24:34.553Z,34.44
2024-02-27T03:25:34.463Z,35.35
2024-02-27T03:26:34.450Z,35.85
2024-02-27T03:27:34.544Z,36.83
2024-02-27T03:28:34.458Z,36.06
2024-02-27T03:29:34.481Z,35.81
2024-02-27T03:30:34.509Z,36.59
2024-02-27T03:31:34.451Z,37.09
2024-02-27T03:32:34.627Z,36.90
2024-02-27T03:33:34.669Z,36.60
2024-02-27T03:34:34.686Z,34.69
2024-02-27T03:35:34.476Z,34.53
2024-02-27T03:36:34.494Z,33.21
2024-02-27T03:37:34.439Z,33.54
2024-02-27T03:38:34.511Z,34.31
2024-02-27T03:39:34.519Z,34.70
2024-02-27T03:40:34.470Z,34.90
2024-02-27T03:41:34.489Z,35.25
2024-02-27T03:42:34.562Z,35.23
2024-02-27T03:43:34.503Z,34.59
2024-02-27T03:44:34.517Z,33.25
2024-02-27T03:45:34.538Z,32.59
2024-02-27T03:46:34.475Z,31.09
2024-02-27T03:47:34.556Z,29.80
2024-02-27T03:48:34.630Z,28.91
2024-02-27T03:49:34.665Z,27.44
2024-02-27T03:50:34.480Z,26.08
2024-02-27T03:51:34.589Z,26.07
2024-02-27T03:52:34.526Z,25.66
2024-02-27T03:53:34.565Z,26.07
2024-02-27T03:54:34.628Z,26.21
2024-02-27T03:55:34.578Z,27.15
2024-02-27T03:56:34.596Z,27.58
2024-02-27T03:57:34.813Z,28.26
2024-02-27T03:58:34.651Z,29.41
2024-02-27T03:59:34.690Z,29.79
2024-02-27T04:00:34.813Z,29.88
2024-02-27T04:01:34.752Z,29.73
2024-02-27T04:02:34.779Z,30.74
2024-02-27T04:03:34.864Z,33.06
2024-02-27T04:04:35.093Z,35.95
2024-02-27T04:05:34.974Z,37.33
2024-02-27T04:06:34.962Z,39.64
2024-02-27T04:07:35.384Z,40.04
2024-02-27T04:08:34.891Z,41.97
2024-02-27T04:09:34.990Z,45.55
2024-02-27T04:10:35.051Z,46.76
2024-02-27T04:11:35.065Z,48.99
2024-02-27T04:12:35.179Z,49.66
2024-02-27T04:13:36.338Z,52.45
2024-02-27T04:14:35.199Z,53.10
2024-02-27T04:15:35.236Z,55.07
2024-02-27T04:16:35.288Z,54.38
2024-02-27T04:18:35.408Z,48.64
2024-02-27T04:19:35.524Z,45.68
2024-02-27T04:20:35.481Z,44.81
2024-02-27T04:21:35.425Z,46.47
2024-02-27T04:22:35.472Z,50.66
2024-02-27T04:23:35.474Z,55.89
2024-02-27T04:24:35.514Z,60.66
2024-02-27T04:25:35.486Z,60.56
2024-02-27T04:26:35.531Z,62.71
2024-02-27T04:27:35.661Z,62.50
2024-02-27T04:28:35.714Z,62.97
2024-02-27T04:29:35.597Z,63.70
2024-02-27T04:30:35.684Z,62.16
2024-02-27T04:31:35.655Z,62.49
2024-02-27T04:32:35.725Z,63.01
2024-02-27T04:33:35.823Z,67.40
2024-02-27T04:34:35.923Z,68.32
2024-02-27T04:35:35.778Z,71.62
2024-02-27T04:36:35.952Z,74.27
2024-02-27T04:37:35.896Z,77.75
2024-02-27T04:38:35.863Z,80.75
2024-02-27T04:39:35.918Z,82.63
2024-02-27T04:40:35.922Z,83.88
2024-02-27T04:41:35.974Z,83.54
2024-02-27T04:42:36.039Z,84.55
2024-02-27T04:43:37.845Z,87.27
2024-02-27T04:44:36.058Z,87.98
2024-02-27T04:45:36.141Z,88.90
2024-02-27T04:46:36.138Z,87.02
2024-02-27T04:47:36.208Z,84.86
2024-02-27T04:48:36.442Z,83.54
2024-02-27T04:49:36.411Z,79.97
2024-02-27T04:50:36.345Z,81.03
2024-02-27T04:51:36.400Z,77.93
2024-02-27T04:52:37.005Z,78.32
2024-02-27T04:53:36.477Z,77.11
2024-02-27T04:54:36.580Z,81.85
2024-02-27T04:55:36.558Z,83.53
2024-02-27T04:56:36.608Z,86.85
2024-02-27T04:57:36.698Z,84.66
2024-02-27T04:58:36.724Z,84.29
2024-02-27T04:59:36.762Z,83.89
2024-02-27T05:00:36.902Z,83.61
2024-02-27T05:01:36.878Z,83.92
2024-02-27T05:02:36.935Z,85.44
2024-02-27T05:03:37.439Z,85.61
2024-02-27T05:04:37.076Z,87.02
2024-02-27T05:05:37.106Z,90.03
2024-02-27T05:06:37.177Z,92.75
2024-02-27T05:07:37.178Z,96.17
2024-02-27T05:08:37.302Z,91.85
2024-02-27T05:09:37.343Z,96.52
2024-02-27T05:10:37.303Z,96.58
2024-02-27T05:11:37.316Z,96.80
2024-02-27T05:12:37.430Z,100.66
2024-02-27T05:13:37.426Z,98.75
2024-02-27T05:14:37.479Z,100.87
2024-02-27T05:15:37.810Z,99.88
2024-02-27T05:16:37.551Z,101.58
2024-02-27T05:17:37.645Z,104.33
2024-02-27T05:18:37.794Z,104.90
2024-02-27T05:19:37.763Z,104.31
2024-02-27T05:20:37.739Z,106.68
2024-02-27T05:21:37.771Z,107.67
2024-02-27T05:22:37.832Z,110.60
2024-02-27T05:23:37.931Z,110.06
2024-02-27T05:24:38.144Z,116.12
2024-02-27T05:25:37.970Z,117.07
2024-02-27T05:26:37.989Z,118.59
2024-02-27T05:27:38.204Z,118.88
2024-02-27T05:28:38.117Z,119.21
2024-02-27T05:29:38.164Z,119.25
2024-02-27T05:30:38.252Z,116.99
2024-02-27T05:31:38.243Z,110.18
2024-02-27T05:32:38.321Z,103.45
2024-02-27T05:33:38.548Z,99.95
2024-02-27T05:34:38.524Z,95.63
2024-02-27T05:35:46.079Z,0.50
2024-02-27T05:36:46.099Z,0.50
2024-02-27T05:37:46.160Z,0.50
2024-02-27T05:38:46.105Z,0.50
2024-02-27T05:39:46.171Z,0.50
2024-02-27T05:40:46.073Z,0.51
2024-02-27T05:41:46.122Z,0.52
2024-02-27T05:42:46.169Z,0.51
2024-02-27T05:43:46.098Z,0.51
2024-02-27T05:44:46.101Z,0.50
2024-02-27T05:45:46.126Z,0.50
2024-02-27T05:46:46.104Z,0.50
2024-02-27T05:47:46.142Z,0.50
2024-02-27T05:48:46.242Z,0.51
2024-02-27T05:49:46.165Z,0.50
2024-02-27T05:50:46.116Z,0.50
2024-02-27T05:51:46.184Z,0.51
2024-02-27T05:52:46.119Z,0.51
2024-02-27T05:53:46.133Z,0.50
2024-02-27T05:54:46.253Z,0.50
2024-02-27T05:55:46.199Z,0.50
2024-02-27T05:56:46.143Z,0.50
2024-02-27T05:57:46.191Z,0.51
2024-02-27T05:58:46.138Z,0.55
2024-02-27T05:59:46.147Z,0.59
2024-02-27T06:00:46.182Z,0.66
2024-02-27T06:01:46.148Z,0.70
2024-02-27T06:02:46.200Z,0.77
2024-02-27T06:04:46.176Z,0.85
2024-02-27T06:05:46.155Z,0.89
2024-02-27T06:06:46.255Z,0.89
2024-02-27T06:07:46.230Z,0.90
2024-02-27T06:08:46.140Z,0.90
2024-02-27T06:09:46.246Z,0.90
2024-02-27T06:10:46.186Z,0.91
2024-02-27T06:11:46.234Z,0.92
2024-02-27T06:12:46.197Z,0.95
2024-02-27T06:13:46.188Z,0.98
2024-02-27T06:14:46.191Z,1.02
2024-02-27T06:15:46.226Z,1.04
2024-02-27T06:16:46.199Z,1.06
2024-02-27T06:17:46.223Z,1.08
2024-02-27T06:18:46.216Z,1.11
2024-02-27T06:19:46.248Z,1.14
2024-02-27T06:20:46.191Z,1.14
2024-02-27T06:21:46.228Z,1.15
2024-02-27T06:22:46.208Z,1.13
2024-02-27T06:23:46.734Z,1.14
2024-02-27T06:24:46.320Z,1.17
2024-02-27T06:25:46.270Z,1.20
2024-02-27T06:26:46.177Z,1.22
2024-02-27T06:27:46.340Z,1.23
2024-02-27T06:28:46.209Z,1.26
2024-02-27T06:29:46.260Z,1.27
2024-02-27T06:30:46.256Z,1.22
2024-02-27T06:31:46.208Z,1.25
2024-02-27T06:32:46.237Z,1.25
2024-02-27T06:33:46.409Z,1.31
2024-02-27T06:34:46.335Z,1.34
2024-02-27T06:35:46.232Z,1.37
2024-02-27T06:36:46.240Z,1.39
2024-02-27T06:37:46.222Z,1.43
2024-02-27T06:38:46.203Z,1.48
2024-02-27T06:39:46.266Z,1.49
2024-02-27T06:40:46.258Z,1.46
2024-02-27T06:41:46.255Z,1.48
2024-02-27T06:42:46.248Z,1.53
2024-02-27T06:43:46.779Z,1.53
2024-02-27T06:44:46.255Z,1.58
2024-02-27T06:45:46.245Z,1.58
2024-02-27T06:46:46.222Z,1.61
2024-02-27T06:47:46.325Z,1.62
2024-02-27T06:48:46.324Z,1.57
2024-02-27T06:49:46.452Z,1.56
2024-02-27T06:50:47.067Z,1.60
2024-02-27T06:51:46.253Z,1.60
2024-02-27T06:52:46.243Z,1.68
2024-02-27T06:53:46.715Z,1.73
2024-02-27T06:54:46.272Z,1.69
2024-02-27T06:55:46.322Z,1.72
2024-02-27T06:56:46.283Z,1.73
2024-02-27T06:57:46.863Z,1.70
2024-02-27T06:58:46.693Z,1.71
2024-02-27T06:59:46.363Z,1.76
2024-02-27T07:00:46.494Z,1.76
2024-02-27T07:01:46.366Z,1.82
2024-02-27T07:02:48.416Z,1.79
2024-02-27T07:03:46.329Z,1.82
2024-02-27T07:04:46.333Z,1.72
2024-02-27T07:05:53.045Z,1.71
2024-02-27T07:06:47.457Z,1.71
2024-02-27T07:07:46.297Z,1.71
2024-02-27T07:08:46.294Z,1.69
2024-02-27T07:09:46.324Z,1.63
2024-02-27T07:10:46.304Z,1.57
2024-02-27T07:11:46.327Z,1.58
2024-02-27T07:12:46.290Z,1.54
2024-02-27T07:13:46.307Z,1.53
2024-02-27T07:14:46.353Z,1.48
2024-02-27T07:15:46.402Z,1.47
2024-02-27T07:16:46.300Z,1.46
2024-02-27T07:17:46.426Z,1.50
2024-02-27T07:18:46.754Z,1.52
2024-02-27T07:19:46.306Z,1.60
2024-02-27T07:20:46.422Z,1.64
2024-02-27T07:21:46.334Z,1.67
2024-02-27T07:22:46.330Z,1.76
2024-02-27T07:23:46.717Z,1.89
2024-02-27T07:24:46.354Z,1.96
2024-02-27T07:25:46.312Z,1.97
2024-02-27T07:26:46.311Z,1.97
2024-02-27T07:27:46.367Z,1.95
2024-02-27T07:28:46.333Z,2.08
2024-02-27T07:29:46.406Z,2.08
2024-02-27T07:30:46.449Z,2.10
2024-02-27T07:31:46.469Z,2.12
2024-02-27T07:32:46.459Z,2.16
2024-02-27T07:33:46.764Z,2.21
2024-02-27T07:34:46.537Z,2.24
2024-02-27T07:35:46.662Z,2.32
2024-02-27T07:36:46.521Z,2.33
2024-02-27T07:37:46.497Z,2.37
2024-02-27T07:38:46.720Z,2.32
2024-02-27T07:39:46.667Z,2.36
2024-02-27T07:40:46.580Z,2.33
2024-02-27T07:41:46.569Z,2.34
2024-02-27T07:42:46.604Z,2.31
2024-02-27T07:43:46.576Z,2.31
2024-02-27T07:44:46.589Z,2.31
2024-02-27T07:45:46.679Z,2.35
2024-02-27T07:46:46.656Z,2.33
2024-02-27T07:47:46.762Z,2.33
2024-02-27T07:48:46.692Z,2.32
2024-02-27T07:49:46.631Z,2.32
2024-02-27T07:50:46.690Z,2.27
2024-02-27T07:51:46.742Z,2.19
2024-02-27T07:52:46.696Z,2.20
2024-02-27T07:53:47.219Z,2.12
2024-02-27T07:54:46.767Z,2.00
2024-02-27T07:55:46.783Z,1.92
2024-02-27T07:56:46.836Z,1.87
2024-02-27T07:57:46.913Z,1.86
2024-02-27T07:58:47.201Z,1.90
2024-02-27T07:59:47.060Z,1.92
2024-02-27T08:00:47.197Z,1.91
2024-02-27T08:01:47.197Z,1.95
2024-02-27T08:02:47.201Z,1.92
2024-02-27T08:03:47.472Z,1.95
2024-02-27T08:04:47.333Z,1.97
2024-02-27T08:05:47.427Z,2.05
2024-02-27T08:06:47.573Z,2.06
2024-02-27T08:07:47.735Z,1.99
2024-02-27T08:08:47.694Z,1.97
2024-02-27T08:09:47.725Z,1.99
2024-02-27T08:10:47.856Z,1.95
2024-02-27T08:11:47.835Z,1.91
2024-02-27T08:12:47.885Z,1.94
2024-02-27T08:13:48.222Z,1.98
2024-02-27T08:14:48.041Z,2.00
2024-02-27T08:15:48.190Z,2.00
2024-02-27T08:16:48.148Z,1.99
2024-02-27T08:17:48.272Z,2.01
2024-02-27T08:18:48.366Z,2.07
2024-02-27T08:19:48.584Z,2.06
2024-02-27T08:20:48.433Z,2.08
2024-02-27T08:21:48.536Z,2.07
2024-02-27T08:22:48.585Z,2.11
2024-02-27T08:23:48.682Z,2.10
2024-02-27T08:24:48.724Z,2.08
2024-02-27T08:25:48.802Z,2.06
2024-02-27T08:26:50.744Z,2.09
2024-02-27T08:27:49.128Z,2.10
2024-02-27T08:28:48.881Z,2.01
2024-02-27T08:29:48.864Z,1.98
2024-02-27T08:30:49.092Z,1.91
2024-02-27T08:31:49.033Z,1.88
2024-02-27T08:32:50.754Z,1.90
2024-02-27T08:33:49.388Z,1.77
2024-02-27T08:34:48.971Z,1.69
2024-02-27T08:35:48.985Z,1.63
2024-02-27T08:36:48.961Z,1.54
2024-02-27T08:37:48.908Z,1.54
2024-02-27T08:38:48.897Z,1.60
2024-02-27T08:39:48.885Z,1.54
2024-02-27T08:40:48.900Z,1.51
2024-02-27T08:41:48.993Z,1.48
2024-02-27T08:42:48.979Z,1.44
2024-02-27T08:43:49.239Z,1.44
2024-02-27T08:44:49.068Z,1.42
2024-02-27T08:45:49.122Z,1.43
2024-02-27T08:46:49.121Z,1.45
2024-02-27T08:47:49.184Z,1.46
2024-02-27T08:48:49.466Z,1.41
2024-02-27T08:49:49.261Z,1.46
2024-02-27T08:50:49.187Z,1.42
2024-02-27T08:51:49.287Z,1.45
2024-02-27T08:52:49.247Z,1.40
2024-02-27T08:53:49.747Z,1.43
2024-02-27T08:54:49.292Z,1.41
2024-02-27T08:55:49.340Z,1.32
2024-02-27T08:56:49.316Z,1.24
2024-02-27T08:57:49.370Z,1.22
2024-02-27T08:58:49.410Z,1.20
2024-02-27T08:59:49.470Z,1.15
2024-02-27T09:00:49.595Z,1.17
2024-02-27T09:01:49.440Z,1.10
2024-02-27T09:02:49.483Z,1.12
2024-02-27T09:03:49.788Z,1.15
2024-02-27T09:04:49.530Z,1.23
2024-02-27T09:05:49.578Z,1.30
2024-02-27T09:06:49.759Z,1.34
2024-02-27T09:07:49.678Z,1.38
2024-02-27T09:08:49.617Z,1.40
2024-02-27T09:09:49.726Z,1.39
2024-02-27T09:10:49.627Z,1.41
2024-02-27T09:11:49.648Z,1.44
2024-02-27T09:12:49.707Z,1.42
2024-02-27T09:13:49.763Z,1.43
2024-02-27T09:14:49.677Z,1.43
2024-02-27T09:15:49.856Z,1.41
2024-02-27T09:16:49.695Z,1.44
2024-02-27T09:17:50.024Z,1.47
2024-02-27T09:18:50.413Z,1.38
2024-02-27T09:19:50.010Z,1.35
2024-02-27T09:20:50.001Z,1.35
2024-02-27T09:21:50.030Z,1.35
2024-02-27T09:22:50.062Z,1.39
2024-02-27T09:23:50.183Z,1.41
2024-02-27T09:24:50.236Z,1.46
2024-02-27T09:25:50.282Z,1.44
2024-02-27T09:26:50.488Z,1.39
2024-02-27T09:27:50.550Z,1.32
2024-02-27T09:28:50.737Z,1.33
2024-02-27T09:29:50.608Z,2.22
2024-02-27T09:30:50.661Z,8.14
2024-02-27T09:31:50.761Z,7.02
2024-02-27T09:32:50.798Z,4.98
2024-02-27T09:33:50.967Z,3.68
2024-02-27T09:34:51.120Z,2.91
2024-02-27T09:35:50.887Z,8.62
2024-02-27T09:36:50.932Z,9.01
2024-02-27T09:37:50.927Z,7.52
2024-02-27T09:38:51.245Z,4.82
2024-02-27T09:39:58.050Z,3.61
2024-02-27T09:40:52.016Z,2.84
2024-02-27T09:41:51.075Z,2.24
2024-02-27T09:42:51.126Z,1.98
2024-02-27T09:43:51.347Z,1.81
2024-02-27T09:44:51.011Z,1.77
2024-02-27T09:45:51.111Z,1.62
2024-02-27T09:46:51.032Z,1.50
2024-02-27T09:47:51.208Z,1.38
2024-02-27T09:48:51.396Z,1.21
2024-02-27T09:49:51.081Z,1.15
2024-02-27T09:50:50.992Z,1.07
2024-02-27T09:51:51.007Z,0.98
2024-02-27T09:52:51.043Z,0.89
2024-02-27T09:53:51.230Z,0.85
2024-02-27T09:54:51.044Z,0.80
2024-02-27T09:55:51.105Z,0.73
2024-02-27T09:56:51.094Z,0.74
2024-02-27T09:57:51.505Z,0.72
2024-02-27T09:58:51.269Z,0.67
2024-02-27T09:59:51.167Z,0.62
2024-02-27T10:00:51.311Z,0.62
2024-02-27T10:01:51.429Z,0.60
2024-02-27T10:02:51.392Z,0.57
2024-02-27T10:03:51.825Z,0.57
2024-02-27T10:04:51.389Z,0.58
2024-02-27T10:05:51.474Z,0.57
2024-02-27T10:06:51.583Z,0.55
2024-02-27T10:07:51.624Z,0.54
2024-02-27T10:08:51.750Z,0.52
2024-02-27T10:09:51.564Z,0.51
2024-02-27T10:10:51.642Z,0.53
2024-02-27T10:11:51.597Z,0.54
2024-02-27T10:12:51.660Z,0.53
2024-02-27T10:13:51.758Z,0.57
2024-02-27T10:14:51.790Z,0.57
2024-02-27T10:15:51.808Z,0.58
2024-02-27T10:16:51.804Z,0.59
2024-02-27T10:17:51.944Z,0.61
2024-02-27T10:18:51.988Z,0.58
2024-02-27T10:19:51.920Z,0.58
2024-02-27T10:20:51.953Z,0.59
2024-02-27T10:21:51.936Z,0.55
2024-02-27T10:22:52.039Z,0.55
2024-02-27T10:23:52.306Z,0.55
2024-02-27T10:24:52.001Z,0.56
2024-02-27T10:25:51.956Z,0.57
2024-02-27T10:26:51.985Z,0.57
2024-02-27T10:27:51.979Z,0.53
2024-02-27T10:28:52.258Z,0.51
2024-02-27T10:29:52.039Z,0.50
2024-02-27T10:30:52.087Z,0.50
2024-02-27T10:31:52.127Z,0.50
2024-02-27T10:32:52.243Z,0.50
2024-02-27T10:33:52.339Z,0.51
2024-02-27T10:34:52.491Z,0.50
2024-02-27T10:35:52.328Z,0.51
2024-02-27T10:36:52.342Z,0.52
2024-02-27T10:37:52.363Z,0.52
2024-02-27T10:38:52.420Z,0.52
2024-02-27T10:39:52.391Z,0.50
2024-02-27T10:40:52.391Z,0.50
2024-02-27T10:41:52.429Z,0.51
2024-02-27T10:42:52.525Z,0.51
2024-02-27T10:43:55.390Z,0.52
2024-02-27T10:44:52.417Z,0.52
2024-02-27T10:45:52.490Z,0.51
2024-02-27T10:46:52.446Z,0.51
2024-02-27T10:47:52.510Z,0.49
2024-02-27T10:48:52.908Z,0.50
2024-02-27T10:49:52.472Z,1.06
2024-02-27T10:50:52.465Z,2.35
2024-02-27T10:51:52.461Z,1.65
2024-02-27T10:52:52.489Z,1.20
2024-02-27T10:53:52.480Z,0.86
2024-02-27T10:54:52.489Z,0.67
2024-02-27T10:55:52.469Z,0.57
2024-02-27T10:56:52.486Z,0.50
2024-02-27T10:57:52.540Z,0.50
2024-02-27T10:58:52.750Z,0.50
2024-02-27T10:59:52.510Z,0.50
2024-02-27T11:00:52.572Z,0.52
2024-02-27T11:01:52.541Z,0.54
2024-02-27T11:02:52.548Z,0.54
2024-02-27T11:03:52.526Z,0.54
2024-02-27T11:04:52.636Z,0.55
2024-02-27T11:05:52.619Z,0.57
2024-02-27T11:06:52.718Z,0.54
2024-02-27T11:07:52.613Z,0.54
2024-02-27T11:08:52.771Z,0.54
2024-02-27T11:09:52.810Z,0.52
2024-02-27T11:10:53.877Z,0.52
2024-02-27T11:11:52.887Z,0.55
2024-02-27T11:12:52.966Z,0.60
2024-02-27T11:13:53.283Z,5.54
2024-02-27T11:14:52.956Z,25.50
2024-02-27T11:15:53.032Z,30.40
2024-02-27T11:16:52.958Z,17.59
2024-02-27T11:17:53.021Z,9.21
2024-02-27T11:18:53.443Z,5.74
2024-02-27T11:19:53.185Z,3.87
2024-02-27T11:20:53.030Z,3.00
2024-02-27T11:21:53.125Z,2.54
2024-02-27T11:22:53.099Z,2.26
2024-02-27T11:23:53.274Z,2.20
2024-02-27T11:24:53.214Z,2.14
2024-02-27T11:25:53.285Z,1.80
2024-02-27T11:26:53.228Z,1.55
2024-02-27T11:27:53.250Z,1.40
2024-02-27T11:28:53.268Z,1.28
2024-02-27T11:29:53.350Z,1.22
2024-02-27T11:30:53.402Z,1.08
2024-02-27T11:31:54.289Z,1.03
2024-02-27T11:33:54.024Z,0.92
2024-02-27T11:34:53.779Z,0.88
2024-02-27T11:35:53.654Z,0.86
2024-02-27T11:36:53.762Z,0.81
2024-02-27T11:37:53.804Z,0.77
2024-02-27T11:39:16.944Z,0.75
2024-02-27T11:39:53.942Z,0.75
2024-02-27T11:40:54.260Z,0.78
2024-02-27T11:41:53.869Z,0.80
2024-02-27T11:42:53.901Z,0.83
2024-02-27T11:43:54.295Z,0.83
2024-02-27T11:44:53.869Z,0.81
2024-02-27T11:45:53.912Z,0.73
2024-02-27T11:46:53.879Z,0.68
2024-02-27T11:47:54.209Z,0.65
2024-02-27T11:48:54.062Z,0.66
2024-02-27T11:49:54.084Z,0.68
2024-02-27T11:50:54.061Z,0.64
2024-02-27T11:51:54.045Z,0.63
2024-02-27T11:52:54.079Z,0.54
2024-02-27T11:53:54.138Z,0.50
2024-02-27T11:54:54.249Z,0.50
2024-02-27T11:55:54.201Z,0.52
2024-02-27T11:56:54.226Z,0.52
2024-02-27T11:57:54.230Z,0.52
2024-02-27T11:58:54.286Z,0.51
2024-02-27T11:59:54.229Z,0.51
2024-02-27T12:00:54.409Z,0.51
2024-02-27T12:01:55.903Z,0.56
2024-02-27T12:02:54.257Z,0.56
2024-02-27T12:03:54.340Z,0.56
2024-02-27T12:04:54.356Z,0.50
2024-02-27T12:05:54.272Z,0.50
2024-02-27T12:06:54.288Z,0.50
2024-02-27T12:07:54.267Z,0.50
2024-02-27T12:08:54.294Z,0.52
2024-02-27T12:09:54.347Z,0.51
2024-02-27T12:10:54.285Z,0.51
2024-02-27T12:11:54.276Z,0.51
2024-02-27T12:12:54.340Z,0.52
2024-02-27T12:13:54.282Z,0.57
2024-02-27T12:14:54.278Z,0.58
2024-02-27T12:15:54.351Z,0.62
2024-02-27T12:16:54.291Z,0.61
2024-02-27T12:17:54.499Z,0.60
2024-02-27T12:18:54.437Z,0.56
2024-02-27T12:19:54.513Z,0.55
2024-02-27T12:20:54.335Z,0.53
2024-02-27T12:21:54.442Z,0.57
2024-02-27T12:22:54.276Z,0.60
2024-02-27T12:23:55.365Z,0.60
2024-02-27T12:24:54.407Z,0.61
2024-02-27T12:25:54.332Z,0.61
2024-02-27T12:26:54.297Z,0.56
2024-02-27T12:27:54.370Z,0.50
2024-02-27T12:28:54.831Z,0.50
2024-02-27T12:29:54.323Z,0.50
2024-02-27T12:30:54.368Z,0.50
2024-02-27T12:31:54.368Z,0.52
2024-02-27T12:32:54.368Z,0.52
2024-02-27T12:33:54.983Z,0.51
2024-02-27T12:34:54.354Z,0.53
2024-02-27T12:35:54.407Z,0.52
2024-02-27T12:36:54.608Z,0.50
2024-02-27T12:37:54.524Z,0.53
2024-02-27T12:38:54.789Z,0.58
2024-02-27T12:39:54.699Z,0.56
2024-02-27T12:40:54.790Z,0.55
2024-02-27T12:41:54.846Z,0.51
2024-02-27T12:42:54.930Z,0.50
2024-02-27T12:43:55.291Z,0.50
2024-02-27T12:44:54.985Z,0.50
2024-02-27T12:45:55.149Z,0.54
2024-02-27T12:46:55.125Z,0.57
2024-02-27T12:47:55.437Z,0.58
2024-02-27T12:48:55.465Z,0.56
2024-02-27T12:49:55.392Z,0.54
2024-02-27T12:50:55.401Z,0.53
2024-02-27T12:51:55.498Z,0.50
2024-02-27T12:53:02.584Z,0.51
2024-02-27T12:53:56.549Z,0.51
2024-02-27T12:54:55.604Z,0.48
2024-02-27T12:55:55.532Z,0.47
2024-02-27T12:56:55.584Z,0.45
2024-02-27T12:57:55.590Z,0.43
2024-02-27T12:58:55.590Z,0.51
2024-02-27T12:59:55.554Z,0.55
2024-02-27T13:00:55.733Z,0.57
2024-02-27T13:01:55.593Z,0.59
2024-02-27T13:02:55.575Z,0.58
2024-02-27T13:03:55.659Z,0.61
2024-02-27T13:04:55.632Z,0.66
2024-02-27T13:05:55.849Z,0.62
2024-02-27T13:06:55.776Z,0.61
2024-02-27T13:07:55.923Z,0.64
2024-02-27T13:08:55.738Z,0.71
2024-02-27T13:09:55.755Z,0.70